POD weather

Public forecast

Using degrees Celsius for public forecast. Weather courtesy of forecast.io.

Current aviation weather report (METAR) for Podor Airport

Retrieved 2020/08/12 11:00 UTC (52 minutes ago):

GOSP 121100Z 24002KT CAVOK 34/24 Q1010

Closest aviation forecast (TAF) to Podor Airport

Closest forecast is Saint Louis Airport, 94.2 nm (174.4 km) WSW. Retrieved 2020/08/12 06:51 UTC (5 hours ago):

TAF GOSS 120530Z 1206/1306 28008KT 9999 SCT013